createdAt,value
2022-11-19T00:01:26.666Z,32.47
2022-11-19T00:03:54.710Z,32.10
2022-11-19T00:06:24.401Z,32.40
2022-11-19T00:08:51.901Z,35.37
2022-11-19T00:11:43.672Z,33.77
2022-11-19T00:14:13.128Z,30.43
2022-11-19T00:16:41.216Z,29.70
2022-11-19T00:19:11.011Z,32.30
2022-11-19T00:21:39.125Z,27.73
2022-11-19T00:24:06.959Z,33.53
2022-11-19T00:26:34.444Z,32.60
2022-11-19T00:29:02.135Z,31.43
2022-11-19T00:31:29.569Z,32.23
2022-11-19T00:33:56.845Z,31.63
2022-11-19T00:36:24.455Z,34.07
2022-11-19T00:38:51.825Z,32.67
2022-11-19T00:41:20.014Z,33.40
2022-11-19T00:43:47.496Z,38.10
2022-11-19T00:46:22.373Z,40.93
2022-11-19T00:48:51.620Z,45.07
2022-11-19T00:51:20.122Z,42.73
2022-11-19T00:53:47.645Z,47.20
2022-11-19T00:56:18.528Z,44.07
2022-11-19T00:58:46.831Z,43.47
2022-11-19T01:01:15.526Z,44.50
2022-11-19T01:03:43.510Z,47.07
2022-11-19T01:06:13.207Z,42.03
2022-11-19T01:08:43.720Z,44.13
2022-11-19T01:11:20.290Z,45.27
2022-11-19T01:13:48.063Z,49.50
2022-11-19T01:16:24.165Z,38.57
2022-11-19T01:18:51.859Z,39.10
2022-11-19T01:21:21.338Z,39.23
2022-11-19T01:23:49.095Z,38.13
2022-11-19T01:26:16.821Z,38.33
2022-11-19T01:28:45.507Z,36.37
2022-11-19T01:31:18.614Z,37.23
2022-11-19T01:33:46.442Z,37.40
2022-11-19T01:36:22.843Z,38.47
2022-11-19T01:38:51.943Z,35.73
2022-11-19T01:41:21.135Z,36.70
2022-11-19T01:44:28.752Z,37.23
2022-11-19T01:46:56.112Z,34.07
2022-11-19T01:49:23.368Z,34.90
2022-11-19T01:52:00.888Z,31.60
2022-11-19T01:54:39.416Z,32.50
2022-11-19T01:57:10.015Z,37.50
2022-11-19T01:59:38.576Z,40.40
2022-11-19T02:02:05.935Z,37.77
2022-11-19T02:04:35.231Z,41.17
2022-11-19T02:07:02.917Z,37.57
2022-11-19T02:09:30.782Z,40.87
2022-11-19T02:12:11.853Z,40.87
2022-11-19T02:15:03.433Z,41.20
2022-11-19T02:18:02.407Z,41.97
2022-11-19T02:20:51.965Z,41.87
2022-11-19T02:23:46.726Z,41.13
2022-11-19T02:26:44.075Z,44.00
2022-11-19T02:29:29.282Z,40.93
2022-11-19T02:32:01.868Z,41.87
2022-11-19T02:34:30.678Z,44.33
2022-11-19T02:37:03.606Z,42.27
2022-11-19T02:39:43.796Z,44.33
2022-11-19T02:42:15.766Z,42.90
2022-11-19T02:44:59.661Z,46.17
2022-11-19T02:47:47.260Z,42.23
2022-11-19T02:50:51.800Z,43.37
2022-11-19T02:53:19.244Z,47.30
2022-11-19T02:56:09.238Z,46.03
2022-11-19T02:58:58.725Z,45.00
2022-11-19T03:01:48.396Z,48.63
2022-11-19T03:04:29.891Z,46.77
2022-11-19T03:07:19.038Z,46.10
2022-11-19T03:09:54.745Z,45.40
2022-11-19T03:12:22.017Z,44.83
2022-11-19T03:15:16.172Z,49.13
2022-11-19T03:18:07.105Z,49.63
2022-11-19T03:20:44.027Z,44.00
2022-11-19T03:23:19.753Z,43.73
2022-11-19T03:26:18.678Z,43.43
2022-11-19T03:28:48.050Z,48.37
2022-11-19T03:31:18.176Z,48.10
2022-11-19T03:33:49.883Z,48.33
2022-11-19T03:36:30.047Z,49.60
2022-11-19T03:39:00.860Z,52.30
2022-11-19T03:41:30.284Z,52.97
2022-11-19T03:44:06.010Z,50.53
2022-11-19T03:46:35.831Z,52.80
2022-11-19T03:49:05.604Z,53.60
2022-11-19T03:51:40.995Z,54.00
2022-11-19T03:54:08.962Z,52.30
2022-11-19T03:56:39.427Z,51.20
2022-11-19T03:59:09.643Z,52.93
2022-11-19T04:01:38.069Z,56.70
2022-11-19T04:04:24.203Z,53.20
2022-11-19T04:06:51.582Z,61.17
2022-11-19T04:09:19.225Z,57.13
2022-11-19T04:14:12.823Z,59.00
2022-11-19T04:16:40.099Z,50.80
2022-11-19T04:19:07.342Z,55.33
2022-11-19T04:21:34.628Z,64.77
2022-11-19T04:24:01.987Z,55.20
2022-11-19T04:26:29.383Z,58.03
2022-11-19T04:28:56.604Z,58.23
2022-11-19T04:31:24.024Z,54.53
2022-11-19T04:33:51.276Z,57.73
2022-11-19T04:36:18.532Z,59.17
2022-11-19T04:38:45.775Z,59.27
2022-11-19T04:41:13.022Z,56.40
2022-11-19T04:43:40.474Z,56.03
2022-11-19T04:46:07.852Z,53.23
2022-11-19T04:48:35.105Z,57.73
2022-11-19T04:51:02.502Z,56.73
2022-11-19T04:53:30.018Z,54.63
2022-11-19T04:55:57.231Z,53.33
2022-11-19T04:58:24.614Z,57.53
2022-11-19T05:00:52.246Z,51.90
2022-11-19T05:03:19.582Z,56.43
2022-11-19T05:05:46.933Z,50.90
2022-11-19T05:08:14.180Z,50.83
2022-11-19T05:10:41.782Z,47.90
2022-11-19T05:13:09.058Z,47.93
2022-11-19T05:15:36.524Z,47.13
2022-11-19T05:18:03.954Z,44.57
2022-11-19T05:20:31.426Z,45.50
2022-11-19T05:22:58.767Z,48.97
2022-11-19T05:25:26.364Z,45.90
2022-11-19T05:27:54.059Z,45.37
2022-11-19T05:30:21.420Z,47.87
2022-11-19T05:32:48.897Z,47.73
2022-11-19T05:35:16.277Z,44.57
2022-11-19T05:37:43.503Z,41.47
2022-11-19T05:40:11.355Z,40.30
2022-11-19T05:42:38.769Z,56.83
2022-11-19T05:45:06.888Z,55.77
2022-11-19T05:47:34.343Z,50.97
2022-11-19T05:50:01.786Z,45.97
2022-11-19T05:52:29.029Z,44.97
2022-11-19T05:54:56.246Z,43.63
2022-11-19T05:57:23.844Z,42.03
2022-11-19T05:59:51.302Z,45.20
2022-11-19T06:02:18.638Z,39.90
2022-11-19T06:04:45.850Z,44.93
2022-11-19T06:07:13.135Z,44.00
2022-11-19T06:09:40.394Z,39.67
2022-11-19T06:12:09.229Z,41.17
2022-11-19T06:14:37.670Z,38.37
2022-11-19T06:17:04.990Z,38.07
2022-11-19T06:19:32.265Z,39.53
2022-11-19T06:22:00.914Z,40.33
2022-11-19T06:24:31.896Z,37.90
2022-11-19T06:26:59.192Z,38.43
2022-11-19T06:29:26.604Z,36.03
2022-11-19T06:31:54.296Z,39.07
2022-11-19T06:34:21.801Z,36.10
2022-11-19T06:36:50.920Z,35.53
2022-11-19T06:39:19.265Z,37.10
2022-11-19T06:41:48.909Z,37.63
2022-11-19T06:44:16.393Z,34.80
2022-11-19T06:46:43.814Z,33.27
2022-11-19T06:49:16.826Z,36.67
2022-11-19T06:51:47.150Z,32.80
2022-11-19T06:54:14.788Z,35.77
2022-11-19T06:56:42.027Z,34.17
2022-11-19T06:59:09.390Z,33.87
2022-11-19T07:01:36.854Z,34.63
2022-11-19T07:04:04.362Z,35.60
2022-11-19T07:06:31.650Z,35.20
2022-11-19T07:08:59.245Z,34.73
2022-11-19T07:11:26.487Z,33.23
2022-11-19T07:13:57.835Z,33.47
2022-11-19T07:16:27.105Z,34.17
2022-11-19T07:18:54.617Z,32.77
2022-11-19T07:21:21.912Z,32.67
2022-11-19T07:23:49.182Z,32.00
2022-11-19T07:26:16.413Z,32.50
2022-11-19T07:28:43.828Z,31.97
2022-11-19T07:31:11.235Z,30.30
2022-11-19T07:33:39.470Z,32.23
2022-11-19T07:36:08.088Z,32.53
2022-11-19T07:38:37.111Z,31.07
2022-11-19T07:41:25.731Z,30.40
2022-11-19T07:43:53.023Z,33.40
2022-11-19T07:46:20.452Z,31.70
2022-11-19T07:48:47.704Z,30.53
2022-11-19T07:51:14.998Z,29.73
2022-11-19T07:53:42.778Z,34.20
2022-11-19T07:56:10.038Z,27.27
2022-11-19T07:58:37.312Z,26.63
2022-11-19T08:01:12.846Z,28.33
2022-11-19T08:03:42.559Z,39.70
2022-11-19T08:06:10.196Z,27.97
2022-11-19T08:08:37.442Z,28.70
2022-11-19T08:11:06.420Z,30.40
2022-11-19T08:13:34.886Z,32.20
2022-11-19T08:16:04.404Z,29.50
2022-11-19T08:18:32.116Z,29.73
2022-11-19T08:21:08.797Z,30.37
2022-11-19T08:23:37.292Z,26.27
2022-11-19T08:26:07.098Z,26.60
2022-11-19T08:28:34.694Z,28.10
2022-11-19T08:31:09.438Z,23.50
2022-11-19T08:33:36.736Z,25.07
2022-11-19T08:36:04.488Z,23.97
2022-11-19T08:38:37.226Z,23.73
2022-11-19T08:41:24.541Z,25.70
2022-11-19T08:43:51.801Z,26.40
2022-11-19T08:46:19.104Z,28.07
2022-11-19T08:48:46.361Z,26.07
2022-11-19T08:51:14.875Z,25.53
2022-11-19T08:53:42.433Z,23.87
2022-11-19T08:56:12.820Z,22.57
2022-11-19T08:58:44.093Z,21.70
2022-11-19T09:01:13.082Z,23.97
2022-11-19T09:03:40.836Z,24.57
2022-11-19T09:06:09.203Z,22.90
2022-11-19T09:08:37.117Z,23.80
2022-11-19T09:11:13.092Z,23.90
2022-11-19T09:13:40.884Z,23.83
2022-11-19T09:16:09.053Z,24.30
2022-11-19T09:18:40.161Z,22.97
2022-11-19T09:21:09.722Z,26.20
2022-11-19T09:23:37.128Z,20.70
2022-11-19T09:26:07.193Z,22.47
2022-11-19T09:28:34.968Z,22.53
2022-11-19T09:31:16.730Z,23.60
2022-11-19T09:33:48.404Z,25.60
2022-11-19T09:36:17.864Z,23.97
2022-11-19T09:38:45.741Z,22.73
2022-11-19T09:41:55.341Z,22.77
2022-11-19T09:44:56.374Z,24.27
2022-11-19T09:47:52.886Z,20.07
2022-11-19T09:50:33.030Z,21.50
2022-11-19T09:53:14.065Z,22.80
2022-11-19T09:55:45.341Z,20.60
2022-11-19T09:58:34.302Z,19.80
2022-11-19T10:01:01.970Z,19.67
2022-11-19T10:03:33.480Z,20.50
2022-11-19T10:06:07.416Z,17.17
2022-11-19T10:08:57.686Z,20.90
2022-11-19T10:11:52.347Z,22.63
2022-11-19T10:14:55.124Z,20.67
2022-11-19T10:17:33.230Z,19.03
2022-11-19T10:20:34.114Z,20.30
2022-11-19T10:23:39.706Z,18.87
2022-11-19T10:26:13.242Z,21.13
2022-11-19T10:28:56.956Z,16.97
2022-11-19T10:31:39.570Z,20.50
2022-11-19T10:34:13.005Z,18.27
2022-11-19T10:36:44.618Z,18.37
2022-11-19T10:39:44.083Z,17.47
2022-11-19T10:42:11.303Z,17.57
2022-11-19T10:44:49.495Z,17.50
2022-11-19T10:47:22.322Z,16.97
2022-11-19T10:49:54.721Z,19.80
2022-11-19T10:52:29.954Z,15.80
2022-11-19T10:55:03.968Z,18.27
2022-11-19T10:57:33.071Z,17.67
2022-11-19T11:00:11.055Z,16.07
2022-11-19T11:02:59.627Z,16.27
2022-11-19T11:05:27.809Z,18.27
2022-11-19T11:08:01.024Z,18.20
2022-11-19T11:10:32.116Z,15.33
2022-11-19T11:13:36.301Z,17.73
2022-11-19T11:16:11.937Z,16.80
2022-11-19T11:18:40.788Z,16.50
2022-11-19T11:21:14.050Z,20.13
2022-11-19T11:23:52.683Z,16.10
2022-11-19T11:26:27.046Z,15.47
2022-11-19T11:29:21.991Z,15.37
2022-11-19T11:31:49.526Z,14.30
2022-11-19T11:34:26.016Z,15.93
2022-11-19T11:36:54.579Z,17.93
2022-11-19T11:39:44.287Z,14.70
2022-11-19T11:42:18.670Z,14.57
2022-11-19T11:45:00.756Z,16.67
2022-11-19T11:47:31.144Z,15.13
2022-11-19T11:50:07.764Z,14.23
2022-11-19T11:52:41.969Z,15.10
2022-11-19T11:55:24.488Z,15.27
2022-11-19T11:58:01.125Z,14.63
2022-11-19T12:00:43.440Z,13.20
2022-11-19T12:03:14.021Z,16.73
2022-11-19T12:06:02.329Z,15.20
2022-11-19T12:08:35.584Z,16.03
2022-11-19T12:11:27.536Z,15.67
2022-11-19T12:14:11.206Z,14.20
2022-11-19T12:17:04.157Z,17.00
2022-11-19T12:19:41.607Z,14.97
2022-11-19T12:22:39.315Z,17.10
2022-11-19T12:25:19.445Z,15.33
2022-11-19T12:28:01.743Z,14.57
2022-11-19T12:30:42.770Z,15.90
2022-11-19T12:33:28.685Z,13.70
2022-11-19T12:36:23.118Z,12.70
2022-11-19T12:39:10.675Z,12.87
2022-11-19T12:41:48.052Z,11.60
2022-11-19T12:44:32.464Z,13.23
2022-11-19T12:47:44.692Z,16.67
2022-11-19T12:50:27.496Z,12.37
2022-11-19T12:53:32.571Z,11.47
2022-11-19T12:56:37.192Z,10.93
2022-11-19T12:59:16.526Z,11.07
2022-11-19T13:01:48.756Z,12.40
2022-11-19T13:04:40.430Z,12.77
2022-11-19T13:07:19.075Z,12.20
2022-11-19T13:09:54.620Z,12.40
2022-11-19T13:12:26.705Z,12.60
2022-11-19T13:15:04.815Z,26.57
2022-11-19T13:17:40.435Z,24.53
2022-11-19T13:20:51.471Z,13.07
2022-11-19T13:23:26.342Z,41.80
2022-11-19T13:26:06.338Z,236.67
2022-11-19T13:28:52.231Z,17.17
2022-11-19T13:31:28.475Z,14.17
2022-11-19T13:34:19.184Z,15.40
2022-11-19T13:36:58.680Z,15.00
2022-11-19T13:39:41.623Z,14.53
2022-11-19T13:42:28.658Z,14.07
2022-11-19T13:44:56.005Z,13.40
2022-11-19T13:47:27.080Z,14.80
2022-11-19T13:50:02.028Z,15.53
2022-11-19T13:52:43.795Z,14.17
2022-11-19T13:55:41.337Z,16.13
2022-11-19T13:58:14.405Z,20.63
2022-11-19T14:00:57.308Z,17.57
2022-11-19T14:03:47.582Z,19.73
2022-11-19T14:06:23.664Z,21.10
2022-11-19T14:08:56.101Z,14.90
2022-11-19T14:11:59.002Z,23.77
2022-11-19T14:15:28.183Z,33.60
2022-11-19T14:18:24.226Z,25.27
2022-11-19T14:21:09.971Z,14.60
2022-11-19T14:24:08.676Z,15.10
2022-11-19T14:26:42.058Z,17.13
2022-11-19T14:29:27.577Z,16.13
2022-11-19T14:32:00.665Z,18.00
2022-11-19T14:34:30.523Z,16.87
2022-11-19T14:37:00.733Z,15.43
2022-11-19T14:39:38.565Z,18.73
2022-11-19T14:42:14.925Z,17.70
2022-11-19T14:44:46.637Z,18.83
2022-11-19T14:47:24.412Z,17.77
2022-11-19T14:49:55.008Z,16.47
2022-11-19T14:52:23.643Z,18.50
2022-11-19T14:55:00.386Z,16.10
2022-11-19T14:57:41.537Z,19.20
2022-11-19T15:00:14.916Z,19.70
2022-11-19T15:02:46.501Z,16.23
2022-11-19T15:05:16.778Z,31.00
2022-11-19T15:07:56.283Z,40.43
2022-11-19T15:10:27.726Z,25.10
2022-11-19T15:13:18.744Z,18.13
2022-11-19T15:15:49.665Z,24.93
2022-11-19T15:18:26.232Z,19.10
2022-11-19T15:21:37.811Z,19.83
2022-11-19T15:24:29.821Z,22.50
2022-11-19T15:27:15.816Z,16.50
2022-11-19T15:30:04.645Z,16.27
2022-11-19T15:32:56.485Z,14.90
2022-11-19T15:35:37.637Z,18.13
2022-11-19T15:38:22.911Z,18.50
2022-11-19T15:40:54.994Z,18.83
2022-11-19T15:43:22.333Z,18.27
2022-11-19T15:46:13.745Z,17.20
2022-11-19T15:49:19.054Z,16.40
2022-11-19T15:51:55.667Z,17.30
2022-11-19T15:54:28.455Z,17.43
2022-11-19T15:57:00.549Z,17.77
2022-11-19T15:59:29.173Z,18.27
2022-11-19T16:02:01.666Z,16.17
2022-11-19T16:04:38.958Z,16.73
2022-11-19T16:07:08.869Z,33.43
2022-11-19T16:09:37.417Z,15.90
2022-11-19T16:12:23.287Z,16.13
2022-11-19T16:15:10.617Z,17.13
2022-11-19T16:17:47.274Z,17.03
2022-11-19T16:20:22.520Z,24.60
2022-11-19T16:22:56.365Z,16.23
2022-11-19T16:25:37.505Z,19.27
2022-11-19T16:28:24.145Z,16.00
2022-11-19T16:31:03.087Z,38.70
2022-11-19T16:33:32.680Z,18.67
2022-11-19T16:36:29.771Z,23.70
2022-11-19T16:38:58.098Z,24.73
2022-11-19T16:41:44.478Z,17.13
2022-11-19T16:44:17.798Z,20.63
2022-11-19T16:46:45.863Z,16.97
2022-11-19T16:49:31.109Z,25.63
2022-11-19T16:51:59.453Z,16.70
2022-11-19T16:54:47.000Z,18.03
2022-11-19T16:57:20.432Z,17.60
2022-11-19T16:59:54.118Z,18.40
2022-11-19T17:02:25.200Z,19.27
2022-11-19T17:04:53.883Z,18.13
2022-11-19T17:07:27.319Z,16.97
2022-11-19T17:10:30.154Z,20.97
2022-11-19T17:13:19.846Z,17.90
2022-11-19T17:15:49.234Z,16.17
2022-11-19T17:18:35.268Z,16.43
2022-11-19T17:21:04.062Z,18.40
2022-11-19T17:23:34.803Z,17.33
2022-11-19T17:26:07.884Z,18.03
2022-11-19T17:28:46.554Z,17.67
2022-11-19T17:31:21.051Z,16.43
2022-11-19T17:33:56.044Z,16.00
2022-11-19T17:36:26.395Z,18.77
2022-11-19T17:38:54.285Z,17.17
2022-11-19T17:41:47.624Z,18.40
2022-11-19T17:44:35.828Z,22.47
2022-11-19T17:47:21.066Z,18.40
2022-11-19T17:49:49.440Z,17.33
2022-11-19T17:52:24.755Z,16.60
2022-11-19T17:54:55.102Z,17.93
2022-11-19T17:57:22.450Z,19.53
2022-11-19T17:59:49.946Z,18.77
2022-11-19T18:02:19.972Z,19.07
2022-11-19T18:04:48.187Z,18.53
2022-11-19T18:07:15.800Z,20.03
2022-11-19T18:09:44.056Z,20.73
2022-11-19T18:12:16.593Z,19.47
2022-11-19T18:14:46.284Z,18.73
2022-11-19T18:17:15.207Z,20.00
2022-11-19T18:19:42.490Z,16.93
2022-11-19T18:22:20.171Z,18.27
2022-11-19T18:24:48.861Z,19.03
2022-11-19T18:27:17.000Z,22.70
2022-11-19T18:29:44.418Z,19.03
2022-11-19T18:32:16.117Z,19.37
2022-11-19T18:34:44.434Z,26.73
2022-11-19T18:37:13.297Z,38.43
2022-11-19T18:39:40.699Z,38.40
2022-11-19T18:42:11.239Z,19.90
2022-11-19T18:44:38.907Z,21.40
2022-11-19T18:47:08.645Z,18.60
2022-11-19T18:49:36.816Z,20.50
2022-11-19T18:52:11.028Z,20.00
2022-11-19T18:54:38.657Z,23.13
2022-11-19T18:57:05.954Z,18.90
2022-11-19T18:59:33.315Z,18.40
2022-11-19T19:02:00.698Z,19.07
2022-11-19T19:04:28.117Z,18.43
2022-11-19T19:06:55.848Z,18.17
2022-11-19T19:09:23.692Z,19.27
2022-11-19T19:12:13.402Z,20.43
2022-11-19T19:14:42.503Z,19.97
2022-11-19T19:17:10.791Z,21.97
2022-11-19T19:19:39.249Z,20.60
2022-11-19T19:22:07.232Z,21.03
2022-11-19T19:24:34.651Z,19.17
2022-11-19T19:27:02.618Z,36.67
2022-11-19T19:29:29.976Z,27.87
2022-11-19T19:31:58.142Z,20.50
2022-11-19T19:34:25.446Z,20.23
2022-11-19T19:36:54.443Z,20.23
2022-11-19T19:39:22.202Z,24.97
2022-11-19T19:41:49.709Z,29.63
2022-11-19T19:44:17.504Z,31.93
2022-11-19T19:46:48.722Z,21.20
2022-11-19T19:49:15.986Z,20.87
2022-11-19T19:51:43.406Z,19.50
2022-11-19T19:54:10.793Z,18.83
2022-11-19T19:56:39.753Z,18.60
2022-11-19T19:59:07.091Z,18.37
2022-11-19T20:01:36.096Z,18.27
2022-11-19T20:04:09.056Z,18.40
2022-11-19T20:06:41.008Z,18.57
2022-11-19T20:09:09.194Z,19.60
2022-11-19T20:11:37.927Z,21.03
2022-11-19T20:14:05.846Z,20.50
2022-11-19T20:16:34.027Z,19.87
2022-11-19T20:19:02.056Z,19.90
2022-11-19T20:21:34.019Z,20.00
2022-11-19T20:24:04.874Z,20.63
2022-11-19T20:26:34.619Z,20.80
2022-11-19T20:29:05.234Z,21.23
2022-11-19T20:31:34.149Z,19.60
2022-11-19T20:34:03.848Z,22.17
2022-11-19T20:36:33.638Z,20.17
2022-11-19T20:39:01.889Z,18.73
2022-11-19T20:41:48.118Z,20.20
2022-11-19T20:44:21.041Z,22.30
2022-11-19T20:47:02.435Z,19.87
2022-11-19T20:49:33.093Z,18.27
2022-11-19T20:52:01.480Z,20.23
2022-11-19T20:54:29.214Z,19.70
2022-11-19T20:56:57.878Z,19.87
2022-11-19T20:59:26.345Z,20.00
2022-11-19T21:01:55.578Z,20.87
2022-11-19T21:04:25.376Z,21.47
2022-11-19T21:06:56.199Z,20.50
2022-11-19T21:09:24.389Z,19.17
2022-11-19T21:11:52.136Z,19.67
2022-11-19T21:14:19.910Z,26.20
2022-11-19T21:16:47.270Z,19.43
2022-11-19T21:19:15.976Z,21.20
2022-11-19T21:21:44.870Z,18.77
2022-11-19T21:24:12.553Z,22.70
2022-11-19T21:26:40.159Z,24.17
2022-11-19T21:29:07.903Z,25.73
2022-11-19T21:31:40.599Z,25.10
2022-11-19T21:34:10.859Z,21.63
2022-11-19T21:36:38.667Z,20.60
2022-11-19T21:39:07.355Z,23.30
2022-11-19T21:41:34.965Z,22.43
2022-11-19T21:44:03.220Z,19.90
2022-11-19T21:46:30.722Z,21.07
2022-11-19T21:48:58.413Z,27.63
2022-11-19T21:51:26.045Z,30.37
2022-11-19T21:53:57.469Z,21.97
2022-11-19T21:56:26.885Z,20.73
2022-11-19T21:58:54.420Z,23.03
2022-11-19T22:01:21.852Z,21.17
2022-11-19T22:03:49.226Z,20.10
2022-11-19T22:06:16.591Z,21.60
2022-11-19T22:08:44.388Z,29.20
2022-11-19T22:11:31.183Z,22.43
2022-11-19T22:14:05.179Z,21.37
2022-11-19T22:16:35.525Z,20.00
2022-11-19T22:19:03.309Z,21.00
2022-11-19T22:21:30.640Z,25.00
2022-11-19T22:23:58.162Z,27.47
2022-11-19T22:26:25.847Z,24.73
2022-11-19T22:28:53.227Z,20.40
2022-11-19T22:31:20.606Z,22.23
2022-11-19T22:33:49.748Z,20.27
2022-11-19T22:36:18.829Z,21.80
2022-11-19T22:38:46.085Z,22.80
2022-11-19T22:41:15.859Z,20.83
2022-11-19T22:43:43.581Z,24.00
2022-11-19T22:46:13.338Z,24.20
2022-11-19T22:48:41.136Z,30.47
2022-11-19T22:51:12.667Z,25.70
2022-11-19T22:53:40.477Z,20.67
2022-11-19T22:56:10.103Z,21.27
2022-11-19T22:58:38.554Z,24.67
2022-11-19T23:01:07.981Z,20.03
2022-11-19T23:03:37.104Z,19.87
2022-11-19T23:06:04.687Z,22.00
2022-11-19T23:08:31.924Z,21.67
2022-11-19T23:11:01.147Z,20.87
2022-11-19T23:13:33.680Z,23.60
2022-11-19T23:16:05.970Z,21.27
2022-11-19T23:18:36.375Z,24.47
2022-11-19T23:21:25.213Z,25.53
2022-11-19T23:23:53.055Z,23.87
2022-11-19T23:26:22.685Z,24.00
2022-11-19T23:28:50.271Z,27.70
2022-11-19T23:31:20.669Z,35.37
2022-11-19T23:33:48.897Z,58.40
2022-11-19T23:36:19.366Z,73.77
2022-11-19T23:38:47.044Z,33.10
2022-11-19T23:41:16.538Z,22.77
2022-11-19T23:43:44.457Z,23.63
2022-11-19T23:46:20.597Z,27.33
2022-11-19T23:48:49.523Z,20.27
2022-11-19T23:51:38.763Z,21.13
2022-11-19T23:54:06.325Z,21.50
2022-11-19T23:56:35.847Z,23.37
2022-11-19T23:59:04.734Z,21.67
